createdAt,value
2022-11-01T00:00:20.280Z,11.55
2022-11-01T00:01:22.619Z,13.90
2022-11-01T00:02:25.037Z,14.52
2022-11-01T00:03:27.232Z,12.73
2022-11-01T00:04:29.438Z,12.45
2022-11-01T00:05:31.576Z,12.88
2022-11-01T00:06:34.262Z,11.07
2022-11-01T00:07:36.690Z,12.35
2022-11-01T00:08:38.854Z,11.40
2022-11-01T00:09:41.024Z,10.38
2022-11-01T00:10:43.173Z,9.75
2022-11-01T00:11:46.078Z,10.02
2022-11-01T00:12:48.544Z,11.60
2022-11-01T00:13:51.122Z,9.75
2022-11-01T00:14:53.287Z,10.43
2022-11-01T00:15:55.453Z,10.00
2022-11-01T00:16:57.649Z,10.98
2022-11-01T00:17:59.833Z,11.25
2022-11-01T00:19:01.989Z,9.60
2022-11-01T00:20:04.467Z,10.00
2022-11-01T00:21:06.682Z,9.70
2022-11-01T00:22:08.920Z,11.38
2022-11-01T00:23:11.123Z,10.63
2022-11-01T00:24:13.375Z,9.45
2022-11-01T00:25:15.679Z,10.30
2022-11-01T00:26:22.484Z,9.75
2022-11-01T00:27:25.079Z,11.43
2022-11-01T00:28:30.849Z,10.77
2022-11-01T00:29:33.008Z,11.88
2022-11-01T00:30:41.603Z,10.50
2022-11-01T00:31:43.867Z,10.02
2022-11-01T00:32:46.114Z,9.38
2022-11-01T00:33:48.634Z,10.85
2022-11-01T00:34:50.790Z,9.25
2022-11-01T00:35:53.408Z,8.88
2022-11-01T00:36:55.601Z,9.13
2022-11-01T00:37:59.549Z,8.75
2022-11-01T00:39:02.780Z,8.93
2022-11-01T00:40:05.292Z,8.18
2022-11-01T00:41:07.668Z,9.48
2022-11-01T00:42:09.879Z,9.13
2022-11-01T00:43:12.998Z,9.57
2022-11-01T00:44:15.237Z,10.30
2022-11-01T00:45:18.686Z,9.25
2022-11-01T00:46:20.851Z,8.57
2022-11-01T00:47:23.024Z,8.48
2022-11-01T00:48:25.260Z,8.70
2022-11-01T00:49:27.436Z,9.35
2022-11-01T00:50:29.672Z,9.45
2022-11-01T00:51:31.868Z,8.95
2022-11-01T00:52:34.129Z,8.93
2022-11-01T00:53:37.439Z,9.55
2022-11-01T00:54:39.636Z,9.48
2022-11-01T00:55:41.893Z,9.50
2022-11-01T00:56:44.127Z,9.63
2022-11-01T00:57:46.724Z,9.05
2022-11-01T00:58:48.887Z,9.57
2022-11-01T00:59:51.041Z,9.00
2022-11-01T01:00:53.237Z,10.13
2022-11-01T01:01:55.564Z,11.27
2022-11-01T01:02:58.465Z,9.27
2022-11-01T01:04:00.770Z,9.23
2022-11-01T01:05:02.984Z,8.80
2022-11-01T01:06:05.291Z,10.20
2022-11-01T01:07:07.603Z,10.25
2022-11-01T01:08:09.830Z,10.70
2022-11-01T01:09:12.111Z,9.77
2022-11-01T01:10:14.427Z,9.98
2022-11-01T01:11:16.684Z,11.05
2022-11-01T01:12:18.942Z,9.65
2022-11-01T01:13:21.169Z,9.57
2022-11-01T01:14:23.363Z,8.68
2022-11-01T01:15:25.653Z,10.23
2022-11-01T01:16:27.934Z,9.63
2022-11-01T01:17:33.745Z,8.60
2022-11-01T01:18:36.349Z,8.68
2022-11-01T01:19:38.615Z,8.80
2022-11-01T01:20:40.947Z,8.43
2022-11-01T01:21:43.168Z,8.98
2022-11-01T01:22:45.519Z,10.90
2022-11-01T01:23:48.646Z,11.35
2022-11-01T01:24:50.795Z,11.18
2022-11-01T01:25:52.966Z,10.57
2022-11-01T01:26:55.203Z,8.82
2022-11-01T01:27:57.544Z,9.00
2022-11-01T01:29:00.541Z,9.77
2022-11-01T01:30:03.071Z,9.25
2022-11-01T01:31:09.404Z,8.60
2022-11-01T01:32:20.137Z,9.88
2022-11-01T01:33:22.315Z,10.13
2022-11-01T01:34:24.475Z,11.38
2022-11-01T01:35:26.677Z,10.15
2022-11-01T01:36:28.893Z,10.02
2022-11-01T01:37:31.152Z,11.23
2022-11-01T01:38:33.333Z,10.50
2022-11-01T01:39:36.142Z,9.85
2022-11-01T01:40:38.352Z,10.23
2022-11-01T01:41:58.627Z,12.30
2022-11-01T01:43:00.891Z,12.23
2022-11-01T01:44:23.110Z,11.63
2022-11-01T01:45:36.803Z,11.32
2022-11-01T01:46:38.965Z,10.80
2022-11-01T01:47:43.594Z,11.90
2022-11-01T01:48:51.015Z,10.85
2022-11-01T01:50:06.658Z,9.88
2022-11-01T01:51:14.805Z,10.07
2022-11-01T01:52:17.088Z,10.68
2022-11-01T01:53:38.431Z,10.98
2022-11-01T01:54:41.124Z,11.07
2022-11-01T01:56:04.408Z,9.27
2022-11-01T01:57:08.306Z,11.20
2022-11-01T01:58:13.517Z,9.55
2022-11-01T01:59:15.763Z,11.10
2022-11-01T02:00:18.421Z,10.05
2022-11-01T02:01:20.970Z,10.82
2022-11-01T02:02:23.359Z,10.45
2022-11-01T02:03:30.562Z,10.40
2022-11-01T02:04:58.001Z,9.57
2022-11-01T02:06:21.726Z,10.10
2022-11-01T02:07:25.139Z,10.52
2022-11-01T02:10:04.014Z,10.18
2022-11-01T02:11:07.696Z,10.55
2022-11-01T02:12:12.405Z,11.63
2022-11-01T02:13:15.004Z,10.15
2022-11-01T02:14:18.845Z,9.18
2022-11-01T02:15:41.901Z,11.18
2022-11-01T02:16:55.020Z,10.60
2022-11-01T02:18:24.702Z,9.70
2022-11-01T02:19:57.616Z,10.85
2022-11-01T02:21:16.187Z,9.80
2022-11-01T02:22:24.690Z,10.88
2022-11-01T02:23:40.568Z,10.68
2022-11-01T02:25:19.957Z,9.10
2022-11-01T02:26:40.718Z,9.38
2022-11-01T02:28:24.635Z,8.95
2022-11-01T02:30:57.627Z,10.25
2022-11-01T02:32:15.402Z,8.52
2022-11-01T02:33:48.412Z,9.25
2022-11-01T02:34:59.121Z,9.30
2022-11-01T02:36:09.919Z,9.32
2022-11-01T02:37:24.860Z,9.15
2022-11-01T02:38:35.192Z,9.18
2022-11-01T02:39:42.686Z,11.65
2022-11-01T02:40:54.933Z,10.02
2022-11-01T02:42:20.119Z,10.75
2022-11-01T02:43:29.357Z,8.95
2022-11-01T02:44:36.292Z,10.23
2022-11-01T02:45:41.951Z,9.70
2022-11-01T02:47:01.618Z,9.45
2022-11-01T02:48:05.322Z,10.40
2022-11-01T02:49:10.002Z,10.27
2022-11-01T02:50:12.390Z,9.98
2022-11-01T02:51:16.886Z,9.00
2022-11-01T02:52:21.820Z,8.82
2022-11-01T02:53:24.494Z,9.00
2022-11-01T02:54:42.632Z,8.82
2022-11-01T02:56:52.508Z,9.07
2022-11-01T02:57:56.537Z,8.75
2022-11-01T02:58:59.509Z,9.23
2022-11-01T03:00:20.412Z,10.40
2022-11-01T03:01:25.063Z,10.05
2022-11-01T03:02:42.183Z,10.07
2022-11-01T03:03:48.731Z,10.38
2022-11-01T03:04:50.990Z,10.70
2022-11-01T03:06:05.092Z,11.23
2022-11-01T03:07:11.798Z,9.48
2022-11-01T03:08:18.789Z,8.25
2022-11-01T03:09:21.241Z,9.35
2022-11-01T03:10:34.866Z,8.60
2022-11-01T03:12:26.617Z,8.20
2022-11-01T03:14:11.969Z,10.00
2022-11-01T03:15:30.821Z,9.10
2022-11-01T03:16:43.703Z,9.25
2022-11-01T03:17:59.375Z,9.57
2022-11-01T03:19:04.877Z,8.45
2022-11-01T03:20:22.060Z,10.25
2022-11-01T03:21:28.235Z,9.32
2022-11-01T03:22:52.506Z,9.07
2022-11-01T03:24:20.344Z,8.18
2022-11-01T03:25:44.350Z,7.15
2022-11-01T03:26:54.449Z,8.40
2022-11-01T03:27:59.982Z,7.82
2022-11-01T03:29:07.090Z,8.90
2022-11-01T03:30:14.004Z,9.05
2022-11-01T03:31:21.787Z,8.70
2022-11-01T03:32:30.485Z,7.97
2022-11-01T03:33:37.483Z,8.27
2022-11-01T03:34:41.929Z,9.10
2022-11-01T03:35:48.946Z,9.77
2022-11-01T03:36:55.057Z,10.32
2022-11-01T03:38:02.176Z,9.48
2022-11-01T03:39:19.186Z,9.93
2022-11-01T03:40:24.220Z,9.55
2022-11-01T03:41:29.017Z,10.07
2022-11-01T03:42:32.440Z,8.77
2022-11-01T03:43:36.512Z,8.15
2022-11-01T03:44:44.005Z,8.18
2022-11-01T03:45:46.772Z,8.77
2022-11-01T03:46:50.444Z,9.57
2022-11-01T03:47:52.746Z,9.57
2022-11-01T03:48:55.280Z,9.48
2022-11-01T03:50:17.255Z,9.63
2022-11-01T03:51:19.420Z,8.90
2022-11-01T03:52:21.586Z,9.80
2022-11-01T03:53:24.473Z,9.93
2022-11-01T03:54:29.000Z,10.45
2022-11-01T03:55:31.183Z,9.55
2022-11-01T03:56:33.413Z,9.13
2022-11-01T03:57:35.708Z,9.02
2022-11-01T03:58:45.089Z,9.95
2022-11-01T03:59:47.241Z,9.55
2022-11-01T04:00:50.685Z,8.65
2022-11-01T04:01:53.132Z,9.75
2022-11-01T04:02:56.803Z,8.50
2022-11-01T04:03:59.103Z,8.65
2022-11-01T04:05:01.303Z,8.40
2022-11-01T04:06:05.137Z,7.72
2022-11-01T04:07:07.287Z,9.57
2022-11-01T04:08:11.023Z,9.13
2022-11-01T04:09:13.217Z,9.05
2022-11-01T04:10:15.602Z,9.18
2022-11-01T04:11:17.884Z,9.07
2022-11-01T04:12:20.019Z,9.35
2022-11-01T04:13:22.260Z,9.65
2022-11-01T04:14:42.711Z,8.13
2022-11-01T04:16:03.207Z,8.57
2022-11-01T04:17:23.849Z,9.65
2022-11-01T04:18:45.091Z,9.48
2022-11-01T04:20:05.805Z,9.95
2022-11-01T04:21:13.259Z,8.38
2022-11-01T04:22:18.185Z,10.80
2022-11-01T04:23:22.781Z,10.07
2022-11-01T04:24:24.945Z,9.23
2022-11-01T04:25:27.469Z,9.77
2022-11-01T04:26:29.681Z,9.05
2022-11-01T04:27:31.810Z,9.05
2022-11-01T04:28:33.999Z,9.68
2022-11-01T04:29:36.157Z,9.95
2022-11-01T04:30:38.358Z,8.32
2022-11-01T04:31:40.869Z,8.13
2022-11-01T04:32:45.725Z,9.18
2022-11-01T04:33:47.880Z,8.05
2022-11-01T04:34:50.069Z,9.77
2022-11-01T04:35:52.283Z,8.52
2022-11-01T04:36:54.980Z,8.52
2022-11-01T04:37:58.643Z,8.23
2022-11-01T04:39:00.923Z,7.78
2022-11-01T04:40:03.567Z,8.18
2022-11-01T04:41:05.732Z,7.78
2022-11-01T04:42:07.970Z,8.35
2022-11-01T04:43:10.771Z,7.40
2022-11-01T04:44:12.932Z,8.05
2022-11-01T04:45:15.158Z,8.23
2022-11-01T04:46:17.367Z,7.45
2022-11-01T04:47:19.580Z,8.05
2022-11-01T04:48:21.896Z,7.85
2022-11-01T04:49:24.033Z,8.27
2022-11-01T04:50:26.190Z,8.07
2022-11-01T04:51:28.519Z,8.23
2022-11-01T04:52:30.787Z,7.57
2022-11-01T04:53:33.028Z,7.20
2022-11-01T04:54:35.213Z,7.65
2022-11-01T04:55:37.747Z,7.78
2022-11-01T04:56:39.890Z,7.68
2022-11-01T04:57:42.898Z,7.55
2022-11-01T04:58:46.592Z,8.85
2022-11-01T04:59:53.060Z,9.05
2022-11-01T05:00:55.618Z,9.38
2022-11-01T05:01:58.278Z,9.00
2022-11-01T05:03:03.394Z,8.95
2022-11-01T05:04:06.045Z,8.93
2022-11-01T05:05:12.448Z,9.02
2022-11-01T05:06:14.585Z,9.07
2022-11-01T05:07:16.786Z,7.82
2022-11-01T05:08:18.926Z,8.43
2022-11-01T05:09:21.103Z,7.70
2022-11-01T05:10:23.279Z,7.68
2022-11-01T05:11:25.760Z,8.18
2022-11-01T05:12:28.397Z,7.75
2022-11-01T05:13:30.594Z,7.85
2022-11-01T05:14:33.056Z,7.90
2022-11-01T05:15:39.940Z,7.65
2022-11-01T05:16:50.142Z,7.30
2022-11-01T05:17:52.444Z,8.30
2022-11-01T05:18:54.632Z,7.95
2022-11-01T05:19:56.799Z,7.32
2022-11-01T05:20:58.975Z,7.22
2022-11-01T05:22:01.167Z,6.55
2022-11-01T05:23:05.490Z,7.63
2022-11-01T05:24:08.206Z,7.88
2022-11-01T05:25:10.459Z,7.55
2022-11-01T05:26:12.674Z,8.07
2022-11-01T05:27:14.797Z,9.00
2022-11-01T05:28:17.015Z,8.15
2022-11-01T05:29:32.814Z,8.63
2022-11-01T05:30:36.605Z,6.45
2022-11-01T05:31:38.782Z,6.45
2022-11-01T05:32:40.928Z,7.93
2022-11-01T05:33:43.078Z,7.43
2022-11-01T05:34:46.712Z,8.07
2022-11-01T05:35:48.955Z,7.03
2022-11-01T05:36:51.162Z,7.22
2022-11-01T05:37:53.630Z,5.88
2022-11-01T05:38:56.893Z,6.30
2022-11-01T05:39:59.185Z,5.68
2022-11-01T05:41:02.945Z,5.50
2022-11-01T05:42:05.191Z,6.15
2022-11-01T05:43:07.348Z,6.45
2022-11-01T05:44:09.522Z,6.05
2022-11-01T05:45:12.253Z,5.75
2022-11-01T05:46:14.417Z,5.97
2022-11-01T05:47:17.399Z,5.70
2022-11-01T05:48:19.858Z,5.63
2022-11-01T05:49:22.591Z,5.47
2022-11-01T05:50:24.781Z,5.75
2022-11-01T05:51:27.009Z,5.68
2022-11-01T05:52:29.190Z,5.07
2022-11-01T05:53:31.374Z,5.10
2022-11-01T05:54:33.530Z,5.25
2022-11-01T05:55:36.490Z,5.35
2022-11-01T05:56:38.716Z,5.30
2022-11-01T05:57:40.914Z,5.45
2022-11-01T05:58:43.310Z,5.25
2022-11-01T05:59:45.461Z,4.47
2022-11-01T06:00:47.599Z,4.50
2022-11-01T06:01:49.966Z,4.43
2022-11-01T06:02:55.285Z,4.55
2022-11-01T06:04:01.718Z,4.90
2022-11-01T06:05:04.052Z,5.05
2022-11-01T06:06:06.468Z,4.57
2022-11-01T06:07:08.683Z,4.53
2022-11-01T06:08:10.879Z,4.88
2022-11-01T06:09:13.087Z,4.63
2022-11-01T06:10:15.256Z,4.85
2022-11-01T06:11:17.449Z,4.70
2022-11-01T06:12:19.634Z,4.18
2022-11-01T06:13:21.818Z,4.45
2022-11-01T06:14:24.064Z,5.03
2022-11-01T06:15:26.282Z,4.97
2022-11-01T06:16:28.430Z,4.60
2022-11-01T06:17:30.659Z,4.75
2022-11-01T06:18:33.075Z,4.85
2022-11-01T06:19:35.304Z,4.80
2022-11-01T06:20:38.178Z,4.53
2022-11-01T06:21:40.416Z,4.53
2022-11-01T06:22:42.609Z,4.20
2022-11-01T06:23:50.327Z,5.05
2022-11-01T06:24:52.528Z,3.83
2022-11-01T06:26:01.847Z,4.47
2022-11-01T06:27:05.445Z,4.68
2022-11-01T06:28:10.757Z,4.28
2022-11-01T06:29:12.916Z,4.40
2022-11-01T06:30:15.698Z,5.13
2022-11-01T06:31:17.910Z,5.03
2022-11-01T06:32:20.105Z,4.85
2022-11-01T06:33:22.244Z,5.22
2022-11-01T06:34:24.435Z,4.47
2022-11-01T06:35:27.794Z,4.35
2022-11-01T06:36:29.971Z,4.38
2022-11-01T06:37:32.255Z,4.20
2022-11-01T06:38:34.670Z,4.38
2022-11-01T06:39:37.045Z,4.75
2022-11-01T06:40:39.223Z,4.70
2022-11-01T06:41:41.353Z,4.78
2022-11-01T06:42:46.330Z,4.18
2022-11-01T06:43:49.653Z,4.90
2022-11-01T06:44:51.965Z,4.53
2022-11-01T06:45:54.164Z,3.80
2022-11-01T06:46:56.338Z,3.67
2022-11-01T06:47:58.689Z,3.50
2022-11-01T06:49:01.088Z,3.30
2022-11-01T06:50:04.089Z,3.83
2022-11-01T06:51:06.664Z,3.00
2022-11-01T06:52:08.873Z,3.17
2022-11-01T06:53:11.293Z,3.10
2022-11-01T06:54:13.713Z,3.20
2022-11-01T06:55:16.504Z,3.13
2022-11-01T06:56:18.737Z,2.90
2022-11-01T06:57:20.997Z,3.33
2022-11-01T06:58:23.170Z,3.25
2022-11-01T06:59:25.551Z,2.90
2022-11-01T07:00:29.296Z,3.03
2022-11-01T07:01:31.893Z,2.95
2022-11-01T07:02:34.275Z,3.15
2022-11-01T07:03:37.025Z,2.85
2022-11-01T07:04:39.183Z,2.97
2022-11-01T07:05:41.861Z,3.25
2022-11-01T07:06:44.407Z,3.35
2022-11-01T07:07:46.591Z,3.38
2022-11-01T07:08:48.809Z,3.78
2022-11-01T07:09:51.061Z,3.30
2022-11-01T07:10:53.375Z,3.45
2022-11-01T07:11:55.668Z,3.40
2022-11-01T07:13:02.285Z,3.97
2022-11-01T07:14:04.484Z,3.75
2022-11-01T07:15:07.028Z,3.30
2022-11-01T07:16:09.290Z,4.00
2022-11-01T07:17:11.814Z,3.40
2022-11-01T07:18:14.221Z,3.35
2022-11-01T07:19:16.420Z,3.90
2022-11-01T07:20:18.603Z,3.05
2022-11-01T07:21:20.999Z,3.20
2022-11-01T07:22:23.205Z,2.47
2022-11-01T07:23:25.323Z,1.90
2022-11-01T07:24:27.438Z,3.10
2022-11-01T07:25:30.776Z,2.90
2022-11-01T07:26:32.964Z,1.58
2022-11-01T07:27:36.668Z,3.08
2022-11-01T07:28:39.503Z,2.30
2022-11-01T07:29:42.209Z,1.80
2022-11-01T07:30:50.978Z,1.73
2022-11-01T07:31:53.208Z,2.85
2022-11-01T07:33:00.629Z,2.60
2022-11-01T07:34:02.984Z,1.70
2022-11-01T07:35:05.689Z,1.75
2022-11-01T07:36:08.821Z,3.33
2022-11-01T07:37:11.189Z,2.00
2022-11-01T07:38:13.905Z,1.83
2022-11-01T07:39:16.333Z,2.15
2022-11-01T07:40:19.973Z,2.00
2022-11-01T07:41:22.202Z,1.80
2022-11-01T07:42:24.359Z,1.70
2022-11-01T07:43:26.611Z,1.90
2022-11-01T07:44:28.795Z,1.50
2022-11-01T07:45:32.856Z,1.60
2022-11-01T07:46:35.147Z,2.00
2022-11-01T07:47:37.496Z,1.20
2022-11-01T07:48:39.717Z,1.60
2022-11-01T07:49:42.111Z,2.40
2022-11-01T07:50:45.518Z,2.35
2022-11-01T07:51:47.729Z,1.60
2022-11-01T07:53:06.201Z,1.83
2022-11-01T07:54:08.408Z,1.65
2022-11-01T07:55:10.627Z,1.77
2022-11-01T07:56:12.886Z,1.60
2022-11-01T07:57:15.033Z,1.30
2022-11-01T07:58:17.593Z,1.15
2022-11-01T07:59:19.763Z,1.40
2022-11-01T08:00:22.078Z,1.42
2022-11-01T08:01:24.355Z,2.20
2022-11-01T08:02:26.712Z,1.63
2022-11-01T08:03:28.926Z,1.58
2022-11-01T08:04:31.263Z,1.73
2022-11-01T08:05:33.841Z,1.90
2022-11-01T08:06:35.995Z,4.70
2022-11-01T08:07:41.961Z,2.58
2022-11-01T08:08:45.928Z,1.70
2022-11-01T08:09:49.026Z,1.50
2022-11-01T08:10:51.200Z,1.40
2022-11-01T08:11:53.470Z,1.50
2022-11-01T08:13:14.952Z,1.27
2022-11-01T08:14:17.212Z,1.50
2022-11-01T08:15:19.410Z,1.67
2022-11-01T08:16:21.639Z,1.88
2022-11-01T08:17:23.828Z,1.73
2022-11-01T08:18:26.011Z,1.50
2022-11-01T08:19:28.199Z,1.10
2022-11-01T08:20:30.785Z,1.30
2022-11-01T08:21:32.945Z,1.35
2022-11-01T08:22:38.626Z,1.10
2022-11-01T08:23:42.666Z,1.33
2022-11-01T08:24:44.849Z,1.52
2022-11-01T08:25:47.153Z,1.63
2022-11-01T08:26:49.321Z,2.15
2022-11-01T08:27:52.180Z,1.60
2022-11-01T08:28:54.612Z,1.88
2022-11-01T08:29:56.831Z,2.03
2022-11-01T08:30:58.970Z,1.48
2022-11-01T08:32:01.170Z,1.50
2022-11-01T08:33:04.722Z,1.80
2022-11-01T08:34:07.338Z,1.98
2022-11-01T08:35:11.781Z,2.00
2022-11-01T08:36:14.659Z,1.60
2022-11-01T08:37:18.493Z,1.40
2022-11-01T08:38:20.729Z,1.40
2022-11-01T08:39:23.231Z,1.30
2022-11-01T08:40:26.597Z,1.10
2022-11-01T08:41:28.781Z,1.02
2022-11-01T08:42:30.933Z,1.10
2022-11-01T08:43:37.977Z,1.00
2022-11-01T08:44:42.870Z,0.90
2022-11-01T08:45:45.500Z,0.98
2022-11-01T08:46:47.732Z,0.82
2022-11-01T08:47:49.855Z,0.80
2022-11-01T08:48:56.067Z,0.80
2022-11-01T08:49:58.365Z,0.98
2022-11-01T08:51:02.387Z,0.98
2022-11-01T08:52:05.818Z,1.00
2022-11-01T08:53:10.753Z,0.82
2022-11-01T08:54:12.887Z,0.98
2022-11-01T08:55:15.139Z,0.95
2022-11-01T08:56:19.645Z,0.82
2022-11-01T08:57:21.879Z,0.77
2022-11-01T08:58:24.873Z,0.90
2022-11-01T08:59:27.050Z,0.70
2022-11-01T09:00:29.356Z,0.98
2022-11-01T09:01:31.634Z,0.90
2022-11-01T09:02:34.452Z,0.80
2022-11-01T09:03:36.686Z,0.80
2022-11-01T09:04:38.968Z,1.45
2022-11-01T09:05:41.186Z,0.90
2022-11-01T09:06:43.392Z,1.00
2022-11-01T09:07:45.956Z,1.08
2022-11-01T09:08:48.667Z,1.10
2022-11-01T09:09:50.860Z,1.00
2022-11-01T09:10:58.446Z,1.00
2022-11-01T09:12:00.684Z,0.88
2022-11-01T09:13:03.210Z,0.80
2022-11-01T09:14:05.626Z,1.13
2022-11-01T09:15:08.014Z,0.90
2022-11-01T09:16:10.261Z,0.80
2022-11-01T09:17:12.486Z,0.90
2022-11-01T09:18:14.667Z,1.35
2022-11-01T09:19:17.022Z,1.20
2022-11-01T09:20:19.809Z,1.83
2022-11-01T09:21:22.043Z,1.40
2022-11-01T09:22:24.476Z,0.82
2022-11-01T09:23:27.100Z,0.93
2022-11-01T09:24:29.552Z,1.10
2022-11-01T09:25:31.857Z,1.73
2022-11-01T09:26:34.087Z,1.98
2022-11-01T09:27:36.298Z,1.00
2022-11-01T09:28:39.290Z,1.27
2022-11-01T09:29:42.634Z,1.40
2022-11-01T09:30:50.297Z,1.05
2022-11-01T09:32:03.621Z,1.33
2022-11-01T09:33:06.478Z,1.00
2022-11-01T09:34:08.746Z,1.50
2022-11-01T09:35:10.983Z,1.38
2022-11-01T09:36:13.255Z,2.08
2022-11-01T09:37:18.428Z,1.45
2022-11-01T09:38:21.008Z,2.17
2022-11-01T09:39:23.393Z,1.20
2022-11-01T09:40:28.631Z,1.30
2022-11-01T09:41:38.869Z,1.33
2022-11-01T09:42:43.867Z,1.25
2022-11-01T09:43:47.900Z,1.38
2022-11-01T09:44:54.985Z,1.10
2022-11-01T09:45:59.304Z,1.10
2022-11-01T09:47:12.596Z,1.50
2022-11-01T09:48:15.868Z,1.00
2022-11-01T09:49:25.284Z,1.50
2022-11-01T09:50:33.614Z,1.30
2022-11-01T09:52:19.103Z,1.38
2022-11-01T09:53:24.196Z,1.20
2022-11-01T09:54:28.060Z,1.63
2022-11-01T09:55:54.943Z,1.40
2022-11-01T09:57:03.280Z,1.60
2022-11-01T09:58:23.695Z,1.30
2022-11-01T09:59:34.774Z,1.13
2022-11-01T10:00:44.455Z,1.40
2022-11-01T10:02:15.325Z,1.48
2022-11-01T10:03:38.883Z,1.50
2022-11-01T10:05:28.303Z,1.20
2022-11-01T10:06:41.536Z,1.45
2022-11-01T10:08:05.961Z,1.33
2022-11-01T10:09:49.959Z,1.42
2022-11-01T10:12:12.573Z,1.30
2022-11-01T10:14:12.580Z,1.25
2022-11-01T10:15:33.206Z,1.00
2022-11-01T10:16:37.877Z,1.30
2022-11-01T10:18:02.215Z,1.33
2022-11-01T10:19:14.779Z,1.45
2022-11-01T10:20:18.883Z,1.30
2022-11-01T10:21:25.876Z,1.23
2022-11-01T10:22:36.673Z,1.17
2022-11-01T10:23:50.989Z,1.00
2022-11-01T10:25:01.810Z,1.63
2022-11-01T10:26:05.802Z,1.20
2022-11-01T10:27:20.479Z,1.58
2022-11-01T10:28:28.292Z,1.45
2022-11-01T10:29:41.170Z,1.30
2022-11-01T10:30:49.584Z,1.08
2022-11-01T10:31:54.709Z,1.27
2022-11-01T10:33:12.199Z,1.45
2022-11-01T10:34:25.621Z,3.88
2022-11-01T10:35:35.227Z,1.80
2022-11-01T10:36:40.450Z,1.75
2022-11-01T10:38:03.899Z,1.67
2022-11-01T10:40:02.874Z,1.58
2022-11-01T10:41:32.238Z,2.25
2022-11-01T10:42:34.528Z,11.02
2022-11-01T10:43:47.480Z,2.03
2022-11-01T10:44:55.276Z,1.60
2022-11-01T10:45:59.132Z,2.55
2022-11-01T10:47:07.063Z,2.05
2022-11-01T10:48:20.372Z,2.17
2022-11-01T10:49:52.898Z,2.13
2022-11-01T10:50:57.174Z,1.92
2022-11-01T10:52:05.182Z,1.60
2022-11-01T10:53:12.849Z,1.80
2022-11-01T10:54:25.569Z,2.17
2022-11-01T10:55:39.591Z,2.00
2022-11-01T10:56:46.744Z,2.03
2022-11-01T10:57:59.653Z,2.00
2022-11-01T10:59:06.288Z,1.95
2022-11-01T11:00:15.444Z,2.15
2022-11-01T11:01:25.409Z,2.47
2022-11-01T11:02:50.554Z,2.42
2022-11-01T11:03:54.887Z,2.13
2022-11-01T11:04:57.614Z,2.58
2022-11-01T11:06:04.924Z,2.10
2022-11-01T11:07:21.461Z,1.88
2022-11-01T11:08:25.831Z,1.85
2022-11-01T11:09:34.740Z,1.90
2022-11-01T11:10:37.197Z,1.73
2022-11-01T11:11:41.461Z,1.90
2022-11-01T11:12:45.653Z,1.77
2022-11-01T11:13:54.783Z,2.17
2022-11-01T11:15:03.717Z,2.15
2022-11-01T11:16:09.028Z,2.20
2022-11-01T11:17:48.543Z,1.90
2022-11-01T11:19:02.067Z,2.10
2022-11-01T11:20:08.097Z,1.60
2022-11-01T11:21:13.851Z,1.42
2022-11-01T11:22:16.373Z,1.67
2022-11-01T11:23:21.537Z,2.50
2022-11-01T11:24:26.085Z,2.20
2022-11-01T11:25:35.193Z,2.10
2022-11-01T11:26:39.246Z,2.10
2022-11-01T11:27:47.405Z,2.83
2022-11-01T11:28:54.198Z,2.20
2022-11-01T11:30:00.334Z,2.35
2022-11-01T11:31:15.762Z,1.88
2022-11-01T11:32:22.093Z,1.80
2022-11-01T11:33:24.385Z,2.17
2022-11-01T11:34:34.815Z,1.60
2022-11-01T11:35:38.533Z,1.38
2022-11-01T11:36:45.421Z,1.60
2022-11-01T11:37:57.966Z,2.03
2022-11-01T11:39:00.546Z,1.98
2022-11-01T11:40:05.561Z,2.38
2022-11-01T11:41:10.016Z,2.15
2022-11-01T11:42:22.230Z,1.60
2022-11-01T11:43:33.834Z,1.75
2022-11-01T11:44:42.288Z,2.60
2022-11-01T11:45:44.583Z,2.42
2022-11-01T11:46:57.016Z,1.73
2022-11-01T11:48:25.137Z,1.92
2022-11-01T11:49:28.194Z,1.85
2022-11-01T11:50:32.657Z,2.22
2022-11-01T11:51:40.655Z,1.63
2022-11-01T11:52:43.450Z,1.83
2022-11-01T11:54:09.098Z,1.50
2022-11-01T11:55:57.767Z,2.25
2022-11-01T11:57:14.398Z,2.20
2022-11-01T11:58:23.233Z,1.70
2022-11-01T11:59:29.265Z,2.00
2022-11-01T12:00:34.700Z,1.98
2022-11-01T12:01:37.039Z,2.13
2022-11-01T12:02:41.701Z,1.67
2022-11-01T12:03:55.263Z,1.95
2022-11-01T12:05:03.807Z,1.73
2022-11-01T12:06:08.615Z,1.70
2022-11-01T12:07:25.524Z,1.55
2022-11-01T12:08:36.339Z,2.10
2022-11-01T12:09:47.574Z,1.45
2022-11-01T12:10:57.640Z,2.08
2022-11-01T12:12:08.040Z,2.42
2022-11-01T12:13:33.691Z,2.00
2022-11-01T12:14:38.650Z,1.70
2022-11-01T12:15:41.575Z,1.42
2022-11-01T12:16:43.851Z,1.60
2022-11-01T12:17:46.799Z,1.45
2022-11-01T12:19:02.761Z,1.85
2022-11-01T12:20:23.978Z,1.85
2022-11-01T12:21:40.107Z,1.75
2022-11-01T12:23:08.012Z,1.70
2022-11-01T12:24:37.686Z,1.92
2022-11-01T12:25:44.012Z,2.42
2022-11-01T12:26:48.465Z,2.30
2022-11-01T12:28:00.902Z,2.60
2022-11-01T12:29:10.476Z,1.77
2022-11-01T12:30:19.628Z,2.13
2022-11-01T12:31:22.473Z,2.03
2022-11-01T12:32:32.088Z,1.92
2022-11-01T12:33:41.731Z,1.65
2022-11-01T12:34:47.254Z,1.50
2022-11-01T12:35:52.433Z,1.58
2022-11-01T12:37:00.399Z,2.17
2022-11-01T12:38:49.575Z,1.65
2022-11-01T12:40:02.309Z,1.48
2022-11-01T12:41:41.281Z,1.77
2022-11-01T12:42:51.592Z,1.45
2022-11-01T12:43:59.440Z,1.80
2022-11-01T12:45:15.307Z,1.88
2022-11-01T12:46:48.335Z,2.20
2022-11-01T12:47:57.549Z,1.48
2022-11-01T12:49:16.063Z,1.85
2022-11-01T12:50:21.880Z,1.63
2022-11-01T12:51:32.515Z,1.83
2022-11-01T12:52:47.005Z,1.77
2022-11-01T12:54:00.014Z,1.90
2022-11-01T12:55:23.771Z,6.10
2022-11-01T12:56:26.813Z,11.43
2022-11-01T12:57:29.316Z,35.97
2022-11-01T12:58:35.261Z,3.15
2022-11-01T12:59:38.791Z,2.00
2022-11-01T13:00:53.309Z,2.78
2022-11-01T13:02:11.088Z,1.98
2022-11-01T13:03:31.406Z,1.80
2022-11-01T13:04:42.266Z,1.77
2022-11-01T13:06:10.133Z,1.88
2022-11-01T13:07:33.207Z,1.83
2022-11-01T13:09:00.770Z,3.35
2022-11-01T13:10:26.037Z,3.30
2022-11-01T13:11:39.921Z,1.95
2022-11-01T13:13:01.399Z,3.13
2022-11-01T13:14:10.880Z,1.85
2022-11-01T13:15:22.900Z,2.72
2022-11-01T13:16:36.816Z,1.75
2022-11-01T13:18:03.867Z,2.08
2022-11-01T13:19:30.840Z,2.05
2022-11-01T13:20:45.923Z,1.33
2022-11-01T13:22:01.438Z,1.90
2022-11-01T13:23:36.148Z,1.65
2022-11-01T13:24:52.914Z,2.00
2022-11-01T13:26:03.805Z,1.67
2022-11-01T13:27:19.828Z,2.60
2022-11-01T13:28:43.960Z,1.90
2022-11-01T13:30:04.689Z,1.85
2022-11-01T13:31:31.705Z,1.83
2022-11-01T13:32:45.968Z,1.95
2022-11-01T13:34:05.029Z,1.52
2022-11-01T13:35:27.831Z,1.80
2022-11-01T13:36:38.793Z,2.10
2022-11-01T13:38:00.348Z,1.25
2022-11-01T13:39:11.682Z,1.63
2022-11-01T13:40:18.668Z,1.65
2022-11-01T13:41:36.272Z,1.50
2022-11-01T13:42:43.389Z,1.58
2022-11-01T13:43:54.648Z,1.67
2022-11-01T13:45:18.320Z,1.40
2022-11-01T13:46:35.501Z,1.50
2022-11-01T13:48:58.949Z,1.80
2022-11-01T13:50:18.986Z,1.65
2022-11-01T13:51:30.694Z,1.55
2022-11-01T13:52:35.895Z,1.40
2022-11-01T13:53:46.652Z,1.40
2022-11-01T13:55:06.401Z,1.23
2022-11-01T13:56:18.682Z,1.67
2022-11-01T13:58:28.405Z,1.60
2022-11-01T13:59:44.915Z,1.90
2022-11-01T14:00:51.152Z,1.85
2022-11-01T14:01:53.887Z,1.80
2022-11-01T14:02:59.018Z,1.50
2022-11-01T14:04:16.289Z,2.15
2022-11-01T14:05:19.047Z,2.00
2022-11-01T14:07:44.939Z,1.65
2022-11-01T14:09:54.656Z,1.40
2022-11-01T14:10:56.909Z,1.50
2022-11-01T14:12:04.869Z,1.92
2022-11-01T14:13:06.953Z,1.70
2022-11-01T14:14:30.778Z,1.85
2022-11-01T14:15:57.178Z,1.55
2022-11-01T14:17:23.145Z,1.40
2022-11-01T14:18:26.578Z,1.70
2022-11-01T14:19:28.843Z,1.50
2022-11-01T14:20:33.730Z,1.92
2022-11-01T14:21:47.473Z,1.88
2022-11-01T14:22:49.860Z,1.40
2022-11-01T14:23:59.093Z,1.80
2022-11-01T14:25:22.867Z,2.13
2022-11-01T14:26:33.821Z,1.80
2022-11-01T14:27:38.004Z,1.60
2022-11-01T14:28:44.549Z,1.75
2022-11-01T14:29:50.318Z,2.05
2022-11-01T14:30:53.359Z,1.77
2022-11-01T14:31:57.147Z,1.60
2022-11-01T14:33:01.033Z,1.52
2022-11-01T14:34:07.816Z,1.50
2022-11-01T14:35:12.978Z,1.73
2022-11-01T14:36:18.542Z,1.42
2022-11-01T14:37:25.860Z,1.83
2022-11-01T14:38:38.714Z,1.45
2022-11-01T14:39:49.066Z,1.45
2022-11-01T14:41:00.110Z,1.60
2022-11-01T14:42:07.027Z,1.67
2022-11-01T14:43:17.407Z,1.80
2022-11-01T14:44:27.346Z,1.77
2022-11-01T14:45:38.077Z,1.55
2022-11-01T14:46:46.688Z,1.48
2022-11-01T14:47:50.897Z,1.38
2022-11-01T14:49:05.518Z,1.77
2022-11-01T14:50:29.476Z,1.58
2022-11-01T14:51:39.645Z,1.40
2022-11-01T14:52:50.888Z,1.40
2022-11-01T14:54:02.704Z,1.60
2022-11-01T14:55:28.851Z,1.60
2022-11-01T14:56:39.960Z,1.40
2022-11-01T14:57:45.053Z,1.77
2022-11-01T14:58:47.851Z,1.65
2022-11-01T14:59:52.336Z,1.75
2022-11-01T15:00:56.879Z,1.40
2022-11-01T15:02:03.691Z,1.83
2022-11-01T15:03:08.308Z,1.88